Startpagina
METAR-TAF:

METAR-TAF

Vliegvelden :

Kassala, Soedan

breedte: 15-28N, lengte: 036-24E, hoogte: 500 m

METAR: ontbreekt

Tijdstip: 06:20 (04:20 UTC)

Verwachting

Dit bericht is 5 uur en het 20 minuten geleden gemaakt, om 23:00 UTC
Verwachting geldig van 19 om 00 UTC tot 20 om 06 UTC
Wind 6 kt uit het noorden
Zicht 10 km of meer
geen wolken onder 1500 m en geen cumulonimbus

TAF: HSKA 182300Z 1900/2006 36006KT CAVOK

Waarnemingen en weersverwachtingen van meer dan 4000 vliegvelden (METAR en TAF).

De beschikbare stations zijn de gele en rode punten op de kaart.

Ga met uw muis naar het station om de naam te zien.

Klik dan om waarnemingen en weersverwachtingen te zien.

kaart wijzigen: klik op de groene knoppen met een zwart kruis om in te zoomen, op de groene knop met een streepje om uit te zoomen of op de groene pijlen voor aangrenzende kaarten.


METAR-TAF: